sensor_id;sensor_type;location;lat;lon;timestamp;pressure;altitude;pressure_sealevel;temperature;humidity
76052;BME280;64751;48.708;9.710;2022-11-06T00:01:39;98042.06;;;4.33;76.82
76052;BME280;64751;48.708;9.710;2022-11-06T00:04:07;98037.88;;;4.32;76.30
76052;BME280;64751;48.708;9.710;2022-11-06T00:06:35;98031.69;;;4.26;75.35
76052;BME280;64751;48.708;9.710;2022-11-06T00:09:17;98041.00;;;4.22;75.67
76052;BME280;64751;48.708;9.710;2022-11-06T00:11:46;98031.59;;;4.21;75.84
76052;BME280;64751;48.708;9.710;2022-11-06T00:14:14;98035.78;;;4.22;76.64
76052;BME280;64751;48.708;9.710;2022-11-06T00:16:43;98031.34;;;4.23;75.87
76052;BME280;64751;48.708;9.710;2022-11-06T00:19:11;98038.06;;;4.19;75.56
76052;BME280;64751;48.708;9.710;2022-11-06T00:21:40;98031.66;;;4.15;75.35
76052;BME280;64751;48.708;9.710;2022-11-06T00:24:10;98031.09;;;4.13;75.79
76052;BME280;64751;48.708;9.710;2022-11-06T00:26:39;98030.75;;;4.09;76.07
76052;BME280;64751;48.708;9.710;2022-11-06T00:29:07;98030.97;;;4.08;75.20
76052;BME280;64751;48.708;9.710;2022-11-06T00:31:35;98016.31;;;4.07;76.64
76052;BME280;64751;48.708;9.710;2022-11-06T00:34:04;98015.06;;;4.09;77.02
76052;BME280;64751;48.708;9.710;2022-11-06T00:36:33;98018.25;;;4.11;76.98
76052;BME280;64751;48.708;9.710;2022-11-06T00:39:02;98006.44;;;4.09;76.00
76052;BME280;64751;48.708;9.710;2022-11-06T00:41:30;98013.25;;;4.10;75.49
76052;BME280;64751;48.708;9.710;2022-11-06T00:43:59;98007.66;;;4.06;75.74
76052;BME280;64751;48.708;9.710;2022-11-06T00:46:27;98000.72;;;4.00;75.37
76052;BME280;64751;48.708;9.710;2022-11-06T00:48:55;98001.63;;;4.06;76.18
76052;BME280;64751;48.708;9.710;2022-11-06T00:51:26;97999.50;;;4.03;75.64
76052;BME280;64751;48.708;9.710;2022-11-06T00:53:55;98011.88;;;4.07;75.00
76052;BME280;64751;48.708;9.710;2022-11-06T00:56:25;98008.25;;;4.08;75.80
76052;BME280;64751;48.708;9.710;2022-11-06T00:58:53;97998.34;;;4.10;76.69
76052;BME280;64751;48.708;9.710;2022-11-06T01:01:22;98000.97;;;4.10;76.63
76052;BME280;64751;48.708;9.710;2022-11-06T01:03:52;98006.00;;;4.12;75.94
76052;BME280;64751;48.708;9.710;2022-11-06T01:06:22;98005.75;;;4.13;76.03
76052;BME280;64751;48.708;9.710;2022-11-06T01:08:50;98008.94;;;4.15;76.19
76052;BME280;64751;48.708;9.710;2022-11-06T01:11:20;98008.50;;;4.18;76.30
76052;BME280;64751;48.708;9.710;2022-11-06T01:13:51;98014.75;;;4.17;75.41
76052;BME280;64751;48.708;9.710;2022-11-06T01:16:20;98012.13;;;4.17;75.22
76052;BME280;64751;48.708;9.710;2022-11-06T01:18:48;98003.72;;;4.15;76.00
76052;BME280;64751;48.708;9.710;2022-11-06T01:21:18;98014.16;;;4.15;76.28
76052;BME280;64751;48.708;9.710;2022-11-06T01:23:46;98008.13;;;4.15;76.82
76052;BME280;64751;48.708;9.710;2022-11-06T01:26:18;98006.78;;;4.12;76.00
76052;BME280;64751;48.708;9.710;2022-11-06T01:28:46;98003.59;;;4.10;75.71
76052;BME280;64751;48.708;9.710;2022-11-06T01:31:17;98001.63;;;4.06;76.25
76052;BME280;64751;48.708;9.710;2022-11-06T01:33:45;98007.47;;;4.08;76.05
76052;BME280;64751;48.708;9.710;2022-11-06T01:36:15;97999.03;;;4.06;76.59
76052;BME280;64751;48.708;9.710;2022-11-06T01:38:44;98000.28;;;4.03;75.54
76052;BME280;64751;48.708;9.710;2022-11-06T01:41:13;98000.72;;;4.00;76.36
76052;BME280;64751;48.708;9.710;2022-11-06T01:43:46;97993.13;;;3.99;75.71
76052;BME280;64751;48.708;9.710;2022-11-06T01:46:16;97992.75;;;3.95;75.84
76052;BME280;64751;48.708;9.710;2022-11-06T01:48:51;97989.13;;;3.96;75.42
76052;BME280;64751;48.708;9.710;2022-11-06T01:51:21;97994.13;;;3.98;75.85
76052;BME280;64751;48.708;9.710;2022-11-06T01:53:50;97992.09;;;4.00;76.47
76052;BME280;64751;48.708;9.710;2022-11-06T01:56:19;97997.31;;;4.00;75.88
76052;BME280;64751;48.708;9.710;2022-11-06T01:58:50;97996.97;;;3.96;74.85
76052;BME280;64751;48.708;9.710;2022-11-06T02:01:19;97999.44;;;3.91;75.56
76052;BME280;64751;48.708;9.710;2022-11-06T02:03:52;97992.28;;;3.87;75.43
76052;BME280;64751;48.708;9.710;2022-11-06T02:06:21;97997.16;;;3.83;75.39
76052;BME280;64751;48.708;9.710;2022-11-06T02:08:50;97996.00;;;3.79;76.08
76052;BME280;64751;48.708;9.710;2022-11-06T02:11:17;97996.44;;;3.76;76.54
76052;BME280;64751;48.708;9.710;2022-11-06T02:14:00;97999.63;;;3.78;76.30
76052;BME280;64751;48.708;9.710;2022-11-06T02:16:38;98002.69;;;3.75;75.90
76052;BME280;64751;48.708;9.710;2022-11-06T02:19:12;98007.31;;;3.73;75.54
76052;BME280;64751;48.708;9.710;2022-11-06T02:22:10;98009.13;;;3.73;75.33
76052;BME280;64751;48.708;9.710;2022-11-06T02:25:00;98000.53;;;3.72;76.40
76052;BME280;64751;48.708;9.710;2022-11-06T02:27:33;97991.66;;;3.73;75.67
76052;BME280;64751;48.708;9.710;2022-11-06T02:30:03;97991.97;;;3.65;75.63
76052;BME280;64751;48.708;9.710;2022-11-06T02:32:37;97988.34;;;3.66;75.08
76052;BME280;64751;48.708;9.710;2022-11-06T02:35:15;97985.56;;;3.61;75.84
76052;BME280;64751;48.708;9.710;2022-11-06T02:37:45;97990.81;;;3.61;77.00
76052;BME280;64751;48.708;9.710;2022-11-06T02:40:13;97971.94;;;3.59;76.29
76052;BME280;64751;48.708;9.710;2022-11-06T02:42:46;97979.00;;;3.58;76.40
76052;BME280;64751;48.708;9.710;2022-11-06T02:45:16;97970.94;;;3.60;76.14
76052;BME280;64751;48.708;9.710;2022-11-06T02:47:46;97971.28;;;3.63;77.23
76052;BME280;64751;48.708;9.710;2022-11-06T02:50:18;97951.88;;;3.59;76.54
76052;BME280;64751;48.708;9.710;2022-11-06T02:52:52;97959.94;;;3.58;75.65
76052;BME280;64751;48.708;9.710;2022-11-06T02:55:25;97954.72;;;3.58;75.65
76052;BME280;64751;48.708;9.710;2022-11-06T02:57:58;97951.28;;;3.57;76.42
76052;BME280;64751;48.708;9.710;2022-11-06T03:00:27;97953.56;;;3.54;75.86
76052;BME280;64751;48.708;9.710;2022-11-06T03:02:57;97940.38;;;3.49;76.47
76052;BME280;64751;48.708;9.710;2022-11-06T03:05:29;97951.16;;;3.52;76.34
76052;BME280;64751;48.708;9.710;2022-11-06T03:08:02;97949.78;;;3.50;76.11
76052;BME280;64751;48.708;9.710;2022-11-06T03:10:39;97949.78;;;3.50;76.29
76052;BME280;64751;48.708;9.710;2022-11-06T03:13:16;97939.22;;;3.45;75.31
76052;BME280;64751;48.708;9.710;2022-11-06T03:15:51;97946.47;;;3.43;75.45
76052;BME280;64751;48.708;9.710;2022-11-06T03:18:27;97934.88;;;3.39;75.44
76052;BME280;64751;48.708;9.710;2022-11-06T03:21:00;97940.09;;;3.39;75.10
76052;BME280;64751;48.708;9.710;2022-11-06T03:23:31;97930.88;;;3.36;75.39
76052;BME280;64751;48.708;9.710;2022-11-06T03:26:08;97928.50;;;3.35;75.93
76052;BME280;64751;48.708;9.710;2022-11-06T03:28:39;97924.88;;;3.36;76.00
76052;BME280;64751;48.708;9.710;2022-11-06T03:31:12;97924.09;;;3.35;76.36
76052;BME280;64751;48.708;9.710;2022-11-06T03:33:45;97922.47;;;3.34;76.16
76052;BME280;64751;48.708;9.710;2022-11-06T03:36:18;97914.06;;;3.32;75.51
76052;BME280;64751;48.708;9.710;2022-11-06T03:38:49;97918.16;;;3.28;75.78
76052;BME280;64751;48.708;9.710;2022-11-06T03:41:19;97901.34;;;3.24;76.11
76052;BME280;64751;48.708;9.710;2022-11-06T03:43:51;97905.75;;;3.24;76.23
76052;BME280;64751;48.708;9.710;2022-11-06T03:46:21;97901.56;;;3.23;75.46
76052;BME280;64751;48.708;9.710;2022-11-06T03:48:53;97902.91;;;3.25;76.00
76052;BME280;64751;48.708;9.710;2022-11-06T03:51:23;97907.38;;;3.25;76.09
76052;BME280;64751;48.708;9.710;2022-11-06T03:53:58;97899.75;;;3.23;76.42
76052;BME280;64751;48.708;9.710;2022-11-06T03:56:30;97897.34;;;3.22;75.76
76052;BME280;64751;48.708;9.710;2022-11-06T03:59:03;97897.13;;;3.23;76.46
76052;BME280;64751;48.708;9.710;2022-11-06T04:01:34;97891.78;;;3.18;76.15
76052;BME280;64751;48.708;9.710;2022-11-06T04:04:04;97891.41;;;3.15;75.74
76052;BME280;64751;48.708;9.710;2022-11-06T04:06:36;97893.03;;;3.16;75.79
76052;BME280;64751;48.708;9.710;2022-11-06T04:09:08;97882.78;;;3.14;76.56
76052;BME280;64751;48.708;9.710;2022-11-06T04:11:55;97883.81;;;3.13;76.06
76052;BME280;64751;48.708;9.710;2022-11-06T04:14:46;97866.66;;;3.06;77.12
76052;BME280;64751;48.708;9.710;2022-11-06T04:17:16;97877.38;;;3.16;76.28
76052;BME280;64751;48.708;9.710;2022-11-06T04:19:49;97879.19;;;3.15;75.80
76052;BME280;64751;48.708;9.710;2022-11-06T04:22:28;97874.19;;;3.14;76.50
76052;BME280;64751;48.708;9.710;2022-11-06T04:25:03;97866.78;;;3.11;76.13
76052;BME280;64751;48.708;9.710;2022-11-06T04:28:06;97879.84;;;3.11;76.07
76052;BME280;64751;48.708;9.710;2022-11-06T04:30:42;97880.66;;;3.11;76.69
76052;BME280;64751;48.708;9.710;2022-11-06T04:33:17;97870.41;;;3.10;76.17
76052;BME280;64751;48.708;9.710;2022-11-06T04:35:56;97875.06;;;3.08;75.60
76052;BME280;64751;48.708;9.710;2022-11-06T04:38:32;97854.94;;;2.97;75.84
76052;BME280;64751;48.708;9.710;2022-11-06T04:41:07;97859.84;;;3.05;75.25
76052;BME280;64751;48.708;9.710;2022-11-06T04:43:42;97858.25;;;3.04;75.41
76052;BME280;64751;48.708;9.710;2022-11-06T04:46:16;97857.44;;;3.03;75.96
76052;BME280;64751;48.708;9.710;2022-11-06T04:48:46;97843.63;;;3.03;75.70
76052;BME280;64751;48.708;9.710;2022-11-06T04:51:17;97837.81;;;3.01;76.58
76052;BME280;64751;48.708;9.710;2022-11-06T04:53:47;97839.19;;;3.03;75.54
76052;BME280;64751;48.708;9.710;2022-11-06T04:56:22;97837.81;;;3.01;75.56
76052;BME280;64751;48.708;9.710;2022-11-06T04:58:52;97831.81;;;3.00;76.12
76052;BME280;64751;48.708;9.710;2022-11-06T05:01:21;97824.44;;;2.97;75.65
76052;BME280;64751;48.708;9.710;2022-11-06T05:03:48;97822.06;;;2.96;75.78
76052;BME280;64751;48.708;9.710;2022-11-06T05:06:16;97817.97;;;3.00;75.93
76052;BME280;64751;48.708;9.710;2022-11-06T05:08:43;97799.72;;;3.00;76.18
76052;BME280;64751;48.708;9.710;2022-11-06T05:11:11;97799.72;;;3.00;75.96
76052;BME280;64751;48.708;9.710;2022-11-06T05:13:38;97808.56;;;2.99;75.56
76052;BME280;64751;48.708;9.710;2022-11-06T05:16:06;97811.72;;;3.01;76.23
76052;BME280;64751;48.708;9.710;2022-11-06T05:18:35;97805.16;;;2.98;75.37
76052;BME280;64751;48.708;9.710;2022-11-06T05:21:03;97808.91;;;3.02;76.05
76052;BME280;64751;48.708;9.710;2022-11-06T05:23:48;97800.72;;;2.99;74.59
76052;BME280;64751;48.708;9.710;2022-11-06T05:26:15;97796.53;;;2.98;74.68
76052;BME280;64751;48.708;9.710;2022-11-06T05:28:43;97796.97;;;2.94;75.38
76052;BME280;64751;48.708;9.710;2022-11-06T05:31:10;97795.03;;;2.90;75.22
76052;BME280;64751;48.708;9.710;2022-11-06T05:33:39;97810.34;;;2.86;74.75
76052;BME280;64751;48.708;9.710;2022-11-06T05:36:07;97808.72;;;2.85;75.61
76052;BME280;64751;48.708;9.710;2022-11-06T05:38:35;97824.38;;;2.85;76.35
76052;BME280;64751;48.708;9.710;2022-11-06T05:41:02;97825.97;;;2.86;75.97
76052;BME280;64751;48.708;9.710;2022-11-06T05:43:30;97821.63;;;2.80;75.31
76052;BME280;64751;48.708;9.710;2022-11-06T05:45:57;97833.09;;;2.79;75.56
76052;BME280;64751;48.708;9.710;2022-11-06T05:48:26;97832.06;;;2.80;75.38
76052;BME280;64751;48.708;9.710;2022-11-06T05:50:59;97827.22;;;2.84;75.34
76052;BME280;64751;48.708;9.710;2022-11-06T05:53:26;97823.56;;;2.85;75.53
76052;BME280;64751;48.708;9.710;2022-11-06T05:55:54;97823.16;;;2.88;76.30
76052;BME280;64751;48.708;9.710;2022-11-06T05:58:21;97826.09;;;2.91;76.32
76052;BME280;64751;48.708;9.710;2022-11-06T06:00:49;97838.56;;;2.89;75.49
76052;BME280;64751;48.708;9.710;2022-11-06T06:03:16;97836.19;;;2.88;75.93
76052;BME280;64751;48.708;9.710;2022-11-06T06:05:44;97843.19;;;2.87;76.23
76052;BME280;64751;48.708;9.710;2022-11-06T06:08:14;97830.38;;;2.86;75.89
76052;BME280;64751;48.708;9.710;2022-11-06T06:10:42;97820.75;;;2.86;75.65
76052;BME280;64751;48.708;9.710;2022-11-06T06:13:09;97813.13;;;2.85;75.44
76052;BME280;64751;48.708;9.710;2022-11-06T06:15:37;97810.75;;;2.83;75.46
76052;BME280;64751;48.708;9.710;2022-11-06T06:18:05;97818.00;;;2.81;76.62
76052;BME280;64751;48.708;9.710;2022-11-06T06:20:33;97817.34;;;2.86;76.31
76052;BME280;64751;48.708;9.710;2022-11-06T06:23:02;97823.28;;;2.93;77.37
76052;BME280;64751;48.708;9.710;2022-11-06T06:25:31;97813.19;;;2.97;76.85
76052;BME280;64751;48.708;9.710;2022-11-06T06:27:58;97820.59;;;3.00;76.15
76052;BME280;64751;48.708;9.710;2022-11-06T06:30:26;97831.81;;;3.00;77.01
76052;BME280;64751;48.708;9.710;2022-11-06T06:32:53;97843.63;;;3.03;75.79
76052;BME280;64751;48.708;9.710;2022-11-06T06:35:21;97847.25;;;3.02;76.83
76052;BME280;64751;48.708;9.710;2022-11-06T06:37:52;97846.25;;;3.03;76.80
76052;BME280;64751;48.708;9.710;2022-11-06T06:40:20;97847.09;;;2.97;76.58
76052;BME280;64751;48.708;9.710;2022-11-06T06:42:49;97843.91;;;2.94;75.76
76052;BME280;64751;48.708;9.710;2022-11-06T06:45:17;97859.13;;;2.98;75.95
76052;BME280;64751;48.708;9.710;2022-11-06T06:47:44;97850.66;;;3.02;76.35
76052;BME280;64751;48.708;9.710;2022-11-06T06:50:12;97856.69;;;3.03;75.72
76052;BME280;64751;48.708;9.710;2022-11-06T06:52:39;97859.06;;;3.04;75.90
76052;BME280;64751;48.708;9.710;2022-11-06T06:55:07;97861.81;;;3.09;76.20
76052;BME280;64751;48.708;9.710;2022-11-06T06:57:35;97851.13;;;3.11;76.66
76052;BME280;64751;48.708;9.710;2022-11-06T07:00:05;97860.91;;;3.15;76.63
76052;BME280;64751;48.708;9.710;2022-11-06T07:02:33;97856.84;;;3.19;77.21
76052;BME280;64751;48.708;9.710;2022-11-06T07:05:01;97855.50;;;3.28;78.11
76052;BME280;64751;48.708;9.710;2022-11-06T07:07:28;97845.78;;;3.35;78.44
76052;BME280;64751;48.708;9.710;2022-11-06T07:09:56;97851.34;;;3.39;77.87
76052;BME280;64751;48.708;9.710;2022-11-06T07:12:24;97846.50;;;3.42;77.95
76052;BME280;64751;48.708;9.710;2022-11-06T07:14:51;97859.44;;;3.49;78.16
76052;BME280;64751;48.708;9.710;2022-11-06T07:17:20;97846.97;;;3.51;77.71
76052;BME280;64751;48.708;9.710;2022-11-06T07:19:48;97832.66;;;3.53;77.44
76052;BME280;64751;48.708;9.710;2022-11-06T07:22:15;97831.44;;;3.56;78.27
76052;BME280;64751;48.708;9.710;2022-11-06T07:24:43;97827.34;;;3.60;78.01
76052;BME280;64751;48.708;9.710;2022-11-06T07:27:10;97829.19;;;3.71;79.83
76052;BME280;64751;48.708;9.710;2022-11-06T07:29:38;97822.38;;;3.82;81.17
76052;BME280;64751;48.708;9.710;2022-11-06T07:32:07;97813.53;;;3.94;81.27
76052;BME280;64751;48.708;9.710;2022-11-06T07:34:36;97806.94;;;4.03;80.73
76052;BME280;64751;48.708;9.710;2022-11-06T07:37:04;97802.38;;;4.10;81.09
76052;BME280;64751;48.708;9.710;2022-11-06T07:39:32;97784.19;;;4.15;81.98
76052;BME280;64751;48.708;9.710;2022-11-06T07:41:59;97784.63;;;4.24;81.90
76052;BME280;64751;48.708;9.710;2022-11-06T07:44:33;97788.28;;;4.34;81.28
76052;BME280;64751;48.708;9.710;2022-11-06T07:47:01;97775.28;;;4.39;81.60
76052;BME280;64751;48.708;9.710;2022-11-06T07:49:28;97772.31;;;4.48;81.09
76052;BME280;64751;48.708;9.710;2022-11-06T07:51:57;97774.56;;;4.56;81.49
76052;BME280;64751;48.708;9.710;2022-11-06T07:54:25;97773.97;;;4.65;81.79
76052;BME280;64751;48.708;9.710;2022-11-06T07:56:52;97769.06;;;4.69;81.98
76052;BME280;64751;48.708;9.710;2022-11-06T07:59:19;97760.88;;;4.77;81.67
76052;BME280;64751;48.708;9.710;2022-11-06T08:01:47;97747.88;;;4.82;81.20
76052;BME280;64751;48.708;9.710;2022-11-06T08:04:14;97739.88;;;4.88;81.26
76052;BME280;64751;48.708;9.710;2022-11-06T08:06:42;97743.94;;;4.96;80.71
76052;BME280;64751;48.708;9.710;2022-11-06T08:09:11;97726.25;;;5.03;80.29
76052;BME280;64751;48.708;9.710;2022-11-06T08:11:38;97720.06;;;5.09;81.17
76052;BME280;64751;48.708;9.710;2022-11-06T08:14:06;97712.09;;;5.16;80.34
76052;BME280;64751;48.708;9.710;2022-11-06T08:16:35;97699.06;;;5.21;81.57
76052;BME280;64751;48.708;9.710;2022-11-06T08:19:03;97689.69;;;5.25;81.89
76052;BME280;64751;48.708;9.710;2022-11-06T08:21:30;97698.91;;;5.27;81.90
76052;BME280;64751;48.708;9.710;2022-11-06T08:23:58;97677.75;;;5.29;81.77
76052;BME280;64751;48.708;9.710;2022-11-06T08:26:27;97679.22;;;5.41;81.88
76052;BME280;64751;48.708;9.710;2022-11-06T08:28:54;97679.06;;;5.48;81.02
76052;BME280;64751;48.708;9.710;2022-11-06T08:31:23;97666.53;;;5.50;80.99
76052;BME280;64751;48.708;9.710;2022-11-06T08:33:50;97653.22;;;5.51;80.87
76052;BME280;64751;48.708;9.710;2022-11-06T08:36:18;97660.34;;;5.56;80.60
76052;BME280;64751;48.708;9.710;2022-11-06T08:38:46;97661.91;;;5.57;80.50
76052;BME280;64751;48.708;9.710;2022-11-06T08:41:14;97653.81;;;5.58;80.63
76052;BME280;64751;48.708;9.710;2022-11-06T08:43:43;97646.81;;;5.64;80.63
76052;BME280;64751;48.708;9.710;2022-11-06T08:46:10;97647.13;;;5.67;80.31
76052;BME280;64751;48.708;9.710;2022-11-06T08:48:38;97638.06;;;5.75;80.32
76052;BME280;64751;48.708;9.710;2022-11-06T08:51:06;97638.94;;;5.80;80.33
76052;BME280;64751;48.708;9.710;2022-11-06T08:53:35;97638.41;;;5.83;80.18
76052;BME280;64751;48.708;9.710;2022-11-06T08:56:03;97637.72;;;5.88;80.63
76052;BME280;64751;48.708;9.710;2022-11-06T08:58:31;97654.88;;;5.96;80.21
76052;BME280;64751;48.708;9.710;2022-11-06T09:01:00;97656.81;;;6.05;81.00
76052;BME280;64751;48.708;9.710;2022-11-06T09:03:28;97652.13;;;6.07;80.04
76052;BME280;64751;48.708;9.710;2022-11-06T09:05:55;97653.69;;;6.08;79.14
76052;BME280;64751;48.708;9.710;2022-11-06T09:08:23;97650.06;;;6.09;79.76
76052;BME280;64751;48.708;9.710;2022-11-06T09:10:51;97648.53;;;6.13;79.79
76052;BME280;64751;48.708;9.710;2022-11-06T09:13:18;97653.50;;;6.15;79.25
76052;BME280;64751;48.708;9.710;2022-11-06T09:15:46;97655.31;;;6.14;79.20
76052;BME280;64751;48.708;9.710;2022-11-06T09:18:15;97657.19;;;6.14;78.99
76052;BME280;64751;48.708;9.710;2022-11-06T09:20:42;97651.44;;;6.17;79.14
76052;BME280;64751;48.708;9.710;2022-11-06T09:23:10;97660.63;;;6.19;79.02
76052;BME280;64751;48.708;9.710;2022-11-06T09:25:38;97657.28;;;6.24;78.92
76052;BME280;64751;48.708;9.710;2022-11-06T09:28:05;97657.28;;;6.24;78.87
76052;BME280;64751;48.708;9.710;2022-11-06T09:30:33;97652.78;;;6.41;83.05
76052;BME280;64751;48.708;9.710;2022-11-06T09:33:01;97655.47;;;6.51;78.57
76052;BME280;64751;48.708;9.710;2022-11-06T09:35:32;97654.41;;;6.47;78.28
76052;BME280;64751;48.708;9.710;2022-11-06T09:38:00;97651.22;;;6.45;78.24
76052;BME280;64751;48.708;9.710;2022-11-06T09:40:31;97651.47;;;6.43;78.07
76052;BME280;64751;48.708;9.710;2022-11-06T09:43:06;97647.53;;;6.41;78.00
76052;BME280;64751;48.708;9.710;2022-11-06T09:45:38;97642.50;;;6.39;78.97
76052;BME280;64751;48.708;9.710;2022-11-06T09:48:14;97642.03;;;6.42;78.66
76052;BME280;64751;48.708;9.710;2022-11-06T09:50:49;97646.78;;;6.45;78.94
76052;BME280;64751;48.708;9.710;2022-11-06T09:53:23;97646.53;;;6.47;78.87
76052;BME280;64751;48.708;9.710;2022-11-06T09:55:51;97646.81;;;6.50;79.13
76052;BME280;64751;48.708;9.710;2022-11-06T09:58:22;97642.38;;;6.51;78.64
76052;BME280;64751;48.708;9.710;2022-11-06T10:00:52;97639.47;;;6.52;78.18
76052;BME280;64751;48.708;9.710;2022-11-06T10:03:23;97641.88;;;6.54;78.35
76052;BME280;64751;48.708;9.710;2022-11-06T10:05:54;97641.97;;;6.64;78.42
76052;BME280;64751;48.708;9.710;2022-11-06T10:08:23;97646.72;;;6.67;78.31
76052;BME280;64751;48.708;9.710;2022-11-06T10:10:58;97656.53;;;6.77;78.43
76052;BME280;64751;48.708;9.710;2022-11-06T10:13:43;97666.81;;;6.83;78.23
76052;BME280;64751;48.708;9.710;2022-11-06T10:16:24;97661.84;;;6.87;77.52
76052;BME280;64751;48.708;9.710;2022-11-06T10:19:03;97658.00;;;6.94;78.19
76052;BME280;64751;48.708;9.710;2022-11-06T10:21:42;97642.75;;;6.91;76.67
76052;BME280;64751;48.708;9.710;2022-11-06T10:24:20;97644.06;;;6.94;77.09
76052;BME280;64751;48.708;9.710;2022-11-06T10:26:51;97630.16;;;6.93;77.21
76052;BME280;64751;48.708;9.710;2022-11-06T10:29:35;97623.03;;;6.89;77.41
76052;BME280;64751;48.708;9.710;2022-11-06T10:32:32;97621.72;;;6.91;77.11
76052;BME280;64751;48.708;9.710;2022-11-06T10:35:07;97635.91;;;6.90;77.58
76052;BME280;64751;48.708;9.710;2022-11-06T10:37:43;97631.75;;;6.94;77.25
76052;BME280;64751;48.708;9.710;2022-11-06T10:40:16;97642.03;;;7.01;76.87
76052;BME280;64751;48.708;9.710;2022-11-06T10:42:51;97632.13;;;7.08;76.84
76052;BME280;64751;48.708;9.710;2022-11-06T10:45:21;97638.94;;;7.09;76.72
76052;BME280;64751;48.708;9.710;2022-11-06T10:47:52;97635.28;;;7.10;76.36
76052;BME280;64751;48.708;9.710;2022-11-06T10:50:23;97610.53;;;7.01;76.13
76052;BME280;64751;48.708;9.710;2022-11-06T10:53:00;97618.50;;;7.16;76.26
76052;BME280;64751;48.708;9.710;2022-11-06T10:56:06;97598.00;;;7.13;76.49
76052;BME280;64751;48.708;9.710;2022-11-06T10:58:38;97604.63;;;7.20;75.31
76052;BME280;64751;48.708;9.710;2022-11-06T11:01:08;97592.03;;;7.22;75.11
76052;BME280;64751;48.708;9.710;2022-11-06T11:03:41;97582.88;;;7.30;75.42
76052;BME280;64751;48.708;9.710;2022-11-06T11:06:09;97577.91;;;7.33;74.56
76052;BME280;64751;48.708;9.710;2022-11-06T11:08:40;97575.28;;;7.33;75.47
76052;BME280;64751;48.708;9.710;2022-11-06T11:11:20;97564.81;;;7.39;76.07
76052;BME280;64751;48.708;9.710;2022-11-06T11:13:51;97546.16;;;7.35;75.52
76052;BME280;64751;48.708;9.710;2022-11-06T11:16:39;97533.78;;;7.36;75.75
76052;BME280;64751;48.708;9.710;2022-11-06T11:19:21;97521.19;;;7.38;74.80
76052;BME280;64751;48.708;9.710;2022-11-06T11:21:54;97506.22;;;7.38;75.65
76052;BME280;64751;48.708;9.710;2022-11-06T11:24:24;97493.06;;;7.33;75.34
76052;BME280;64751;48.708;9.710;2022-11-06T11:26:53;97487.31;;;7.36;75.68
76052;BME280;64751;48.708;9.710;2022-11-06T11:29:23;97482.88;;;7.42;76.43
76052;BME280;64751;48.708;9.710;2022-11-06T11:31:55;97470.78;;;7.46;76.39
76052;BME280;64751;48.708;9.710;2022-11-06T11:34:25;97462.91;;;7.46;75.37
76052;BME280;64751;48.708;9.710;2022-11-06T11:36:56;97460.81;;;7.48;75.87
76052;BME280;64751;48.708;9.710;2022-11-06T11:39:28;97447.69;;;7.48;76.60
76052;BME280;64751;48.708;9.710;2022-11-06T11:42:25;97446.63;;;7.54;76.14
76052;BME280;64751;48.708;9.710;2022-11-06T11:45:10;97436.66;;;7.56;75.48
76052;BME280;64751;48.708;9.710;2022-11-06T11:47:40;97436.66;;;7.56;75.30
76052;BME280;64751;48.708;9.710;2022-11-06T11:50:26;97436.66;;;7.61;75.74
76052;BME280;64751;48.708;9.710;2022-11-06T11:52:58;97433.00;;;7.67;75.10
76052;BME280;64751;48.708;9.710;2022-11-06T11:55:28;97411.44;;;7.65;75.15
76052;BME280;64751;48.708;9.710;2022-11-06T11:57:58;97410.41;;;7.66;75.32
76052;BME280;64751;48.708;9.710;2022-11-06T12:00:27;97400.44;;;7.68;75.63
76052;BME280;64751;48.708;9.710;2022-11-06T12:02:57;97408.31;;;7.73;75.30
76052;BME280;64751;48.708;9.710;2022-11-06T12:05:31;97405.94;;;7.76;74.64
76052;BME280;64751;48.708;9.710;2022-11-06T12:08:00;97405.69;;;7.73;74.47
76052;BME280;64751;48.708;9.710;2022-11-06T12:10:31;97407.28;;;7.79;74.54
76052;BME280;64751;48.708;9.710;2022-11-06T12:13:01;97397.81;;;7.83;74.47
76052;BME280;64751;48.708;9.710;2022-11-06T12:15:38;97392.56;;;7.83;74.31
76052;BME280;64751;48.708;9.710;2022-11-06T12:18:10;97389.69;;;7.84;74.07
76052;BME280;64751;48.708;9.710;2022-11-06T12:20:42;97386.00;;;7.90;73.73
76052;BME280;64751;48.708;9.710;2022-11-06T12:23:15;97379.16;;;7.84;73.41
76052;BME280;64751;48.708;9.710;2022-11-06T12:25:46;97371.78;;;7.81;73.57
76052;BME280;64751;48.708;9.710;2022-11-06T12:28:19;97373.63;;;7.81;73.74
76052;BME280;64751;48.708;9.710;2022-11-06T12:30:56;97368.63;;;7.79;73.16
76052;BME280;64751;48.708;9.710;2022-11-06T12:33:27;97362.84;;;7.77;73.89
76052;BME280;64751;48.708;9.710;2022-11-06T12:35:58;97348.94;;;7.82;73.43
76052;BME280;64751;48.708;9.710;2022-11-06T12:38:31;97349.44;;;7.79;73.02
76052;BME280;64751;48.708;9.710;2022-11-06T12:41:12;97352.59;;;7.81;73.04
76052;BME280;64751;48.708;9.710;2022-11-06T12:43:42;97360.47;;;7.81;74.19
76052;BME280;64751;48.708;9.710;2022-11-06T12:46:32;97354.19;;;7.82;73.24
76052;BME280;64751;48.708;9.710;2022-11-06T12:49:21;97358.91;;;7.85;72.67
76052;BME280;64751;48.708;9.710;2022-11-06T12:52:07;97353.13;;;7.83;72.98
76052;BME280;64751;48.708;9.710;2022-11-06T12:54:47;97358.91;;;7.80;71.96
76052;BME280;64751;48.708;9.710;2022-11-06T12:57:26;97354.69;;;7.74;72.62
76052;BME280;64751;48.708;9.710;2022-11-06T13:00:06;97351.53;;;7.77;73.49
76052;BME280;64751;48.708;9.710;2022-11-06T13:02:48;97353.66;;;7.80;72.87
76052;BME280;64751;48.708;9.710;2022-11-06T13:05:20;97359.44;;;7.77;73.20
76052;BME280;64751;48.708;9.710;2022-11-06T13:08:11;97349.72;;;7.72;73.08
76052;BME280;64751;48.708;9.710;2022-11-06T13:10:50;97356.56;;;7.73;72.89
76052;BME280;64751;48.708;9.710;2022-11-06T13:16:28;97349.72;;;7.72;72.89
76052;BME280;64751;48.708;9.710;2022-11-06T13:19:04;97334.72;;;7.73;72.85
76052;BME280;64751;48.708;9.710;2022-11-06T13:21:49;97333.13;;;7.72;73.29
76052;BME280;64751;48.708;9.710;2022-11-06T13:24:24;97337.34;;;7.68;72.57
76052;BME280;64751;48.708;9.710;2022-11-06T13:26:59;97333.13;;;7.67;72.51
76052;BME280;64751;48.708;9.710;2022-11-06T13:29:30;97333.16;;;7.62;72.05
76052;BME280;64751;48.708;9.710;2022-11-06T13:32:00;97328.41;;;7.59;73.09
76052;BME280;64751;48.708;9.710;2022-11-06T13:34:31;97328.13;;;7.60;73.66
76052;BME280;64751;48.708;9.710;2022-11-06T13:37:00;97324.75;;;7.60;73.18